Jewell Ridge, Virginia
Current Conditions -  °F | °C
As of 10:55 PM on Wednesday 22 Oct 2014 (Local Time) from KJFZ Reporting Station
Haze Haze  
Wind Chill: 41°   Ceiling: 300
Heat Index: 45°   Visibility: 3mi
Dew Point: 43°   Wind: 6mph
Humidity: 95%   Direction: 330°NNW
Pressure: 30.19"   Gusts: NA
Location:  37.19°N, 81.79°W
Report Text: KJFZ 230255Z AUTO 33005KT 3SM BR OVC003 07/06 A3019 RMK AO2 T00700062
Loading
Personal Weather Stations






























Interactive Weather Map
Tropical Storm Tracking
New forecast layout! Learn more

10-Day Weather Forecast

Advertisements
Track Severe Weather on mobile